sensor_id;sensor_type;location;lat;lon;timestamp;P1;durP1;ratioP1;P2;durP2;ratioP2
50355;SDS011;36264;51.296;-0.602;2022-07-03T00:00:09;2.58;;;1.38;;
50355;SDS011;36264;51.296;-0.602;2022-07-03T00:02:34;3.97;;;1.63;;
50355;SDS011;36264;51.296;-0.602;2022-07-03T00:04:59;3.97;;;1.70;;
50355;SDS011;36264;51.296;-0.602;2022-07-03T00:07:25;2.63;;;1.38;;
50355;SDS011;36264;51.296;-0.602;2022-07-03T00:09:50;2.97;;;1.40;;
50355;SDS011;36264;51.296;-0.602;2022-07-03T00:12:16;2.00;;;1.20;;
50355;SDS011;36264;51.296;-0.602;2022-07-03T00:14:41;1.85;;;1.15;;
50355;SDS011;36264;51.296;-0.602;2022-07-03T00:17:07;2.38;;;1.35;;
50355;SDS011;36264;51.296;-0.602;2022-07-03T00:19:32;2.13;;;1.27;;
50355;SDS011;36264;51.296;-0.602;2022-07-03T00:22:07;2.22;;;1.33;;
50355;SDS011;36264;51.296;-0.602;2022-07-03T00:27:19;1.60;;;1.10;;
50355;SDS011;36264;51.296;-0.602;2022-07-03T00:29:46;1.45;;;0.98;;
50355;SDS011;36264;51.296;-0.602;2022-07-03T00:32:16;1.55;;;1.10;;
50355;SDS011;36264;51.296;-0.602;2022-07-03T00:34:46;3.85;;;1.50;;
50355;SDS011;36264;51.296;-0.602;2022-07-03T00:37:14;2.67;;;1.10;;
50355;SDS011;36264;51.296;-0.602;2022-07-03T00:39:40;1.30;;;0.93;;
50355;SDS011;36264;51.296;-0.602;2022-07-03T00:42:07;2.60;;;1.20;;
50355;SDS011;36264;51.296;-0.602;2022-07-03T00:44:34;2.25;;;1.00;;
50355;SDS011;36264;51.296;-0.602;2022-07-03T00:47:07;1.95;;;1.10;;
50355;SDS011;36264;51.296;-0.602;2022-07-03T00:49:33;1.38;;;1.10;;
50355;SDS011;36264;51.296;-0.602;2022-07-03T00:52:02;3.63;;;1.10;;
50355;SDS011;36264;51.296;-0.602;2022-07-03T00:54:29;1.98;;;1.10;;
50355;SDS011;36264;51.296;-0.602;2022-07-03T00:56:58;1.13;;;1.02;;
50355;SDS011;36264;51.296;-0.602;2022-07-03T00:59:25;3.20;;;1.13;;
50355;SDS011;36264;51.296;-0.602;2022-07-03T01:01:52;1.60;;;1.05;;
50355;SDS011;36264;51.296;-0.602;2022-07-03T01:04:35;1.52;;;1.00;;
50355;SDS011;36264;51.296;-0.602;2022-07-03T01:07:27;1.10;;;0.95;;
50355;SDS011;36264;51.296;-0.602;2022-07-03T01:13:00;1.92;;;0.93;;
50355;SDS011;36264;51.296;-0.602;2022-07-03T01:21:34;1.90;;;1.00;;
50355;SDS011;36264;51.296;-0.602;2022-07-03T01:27:04;1.75;;;1.13;;
50355;SDS011;36264;51.296;-0.602;2022-07-03T01:29:49;2.25;;;1.35;;
50355;SDS011;36264;51.296;-0.602;2022-07-03T01:32:22;3.35;;;1.58;;
50355;SDS011;36264;51.296;-0.602;2022-07-03T01:34:52;2.17;;;1.20;;
50355;SDS011;36264;51.296;-0.602;2022-07-03T01:37:19;1.52;;;1.20;;
50355;SDS011;36264;51.296;-0.602;2022-07-03T01:39:49;2.83;;;1.60;;
50355;SDS011;36264;51.296;-0.602;2022-07-03T01:42:18;2.88;;;1.60;;
50355;SDS011;36264;51.296;-0.602;2022-07-03T01:44:44;2.33;;;1.40;;
50355;SDS011;36264;51.296;-0.602;2022-07-03T01:47:12;3.22;;;1.90;;
50355;SDS011;36264;51.296;-0.602;2022-07-03T01:49:40;2.58;;;1.40;;
50355;SDS011;36264;51.296;-0.602;2022-07-03T01:52:07;6.05;;;2.10;;
50355;SDS011;36264;51.296;-0.602;2022-07-03T01:54:35;5.05;;;2.20;;
50355;SDS011;36264;51.296;-0.602;2022-07-03T01:57:04;5.13;;;2.28;;
50355;SDS011;36264;51.296;-0.602;2022-07-03T01:59:31;4.25;;;2.28;;
50355;SDS011;36264;51.296;-0.602;2022-07-03T02:04:54;4.93;;;2.30;;
50355;SDS011;36264;51.296;-0.602;2022-07-03T02:10:09;4.90;;;2.20;;
50355;SDS011;36264;51.296;-0.602;2022-07-03T02:12:45;4.40;;;2.10;;
50355;SDS011;36264;51.296;-0.602;2022-07-03T02:15:13;5.28;;;2.05;;
50355;SDS011;36264;51.296;-0.602;2022-07-03T02:17:43;3.10;;;1.92;;
50355;SDS011;36264;51.296;-0.602;2022-07-03T02:20:11;4.97;;;2.05;;
50355;SDS011;36264;51.296;-0.602;2022-07-03T02:22:39;3.28;;;1.80;;
50355;SDS011;36264;51.296;-0.602;2022-07-03T02:25:08;2.97;;;1.70;;
50355;SDS011;36264;51.296;-0.602;2022-07-03T02:27:42;3.90;;;2.00;;
50355;SDS011;36264;51.296;-0.602;2022-07-03T02:30:30;3.80;;;1.83;;
50355;SDS011;36264;51.296;-0.602;2022-07-03T02:33:01;4.07;;;2.05;;
50355;SDS011;36264;51.296;-0.602;2022-07-03T02:35:28;4.72;;;1.92;;
50355;SDS011;36264;51.296;-0.602;2022-07-03T02:40:46;2.83;;;1.70;;
50355;SDS011;36264;51.296;-0.602;2022-07-03T02:46:12;4.43;;;2.15;;
50355;SDS011;36264;51.296;-0.602;2022-07-03T02:49:02;4.30;;;2.33;;
50355;SDS011;36264;51.296;-0.602;2022-07-03T02:51:54;3.58;;;2.35;;
50355;SDS011;36264;51.296;-0.602;2022-07-03T02:54:27;6.05;;;2.40;;
50355;SDS011;36264;51.296;-0.602;2022-07-03T02:57:07;5.10;;;2.00;;
50355;SDS011;36264;51.296;-0.602;2022-07-03T03:02:13;7.32;;;2.40;;
50355;SDS011;36264;51.296;-0.602;2022-07-03T03:04:44;7.38;;;2.40;;
50355;SDS011;36264;51.296;-0.602;2022-07-03T03:07:17;6.88;;;2.33;;
50355;SDS011;36264;51.296;-0.602;2022-07-03T03:09:48;4.95;;;2.42;;
50355;SDS011;36264;51.296;-0.602;2022-07-03T03:12:13;4.65;;;2.00;;
50355;SDS011;36264;51.296;-0.602;2022-07-03T03:14:43;3.97;;;2.00;;
50355;SDS011;36264;51.296;-0.602;2022-07-03T03:17:19;4.60;;;2.05;;
50355;SDS011;36264;51.296;-0.602;2022-07-03T03:19:51;3.58;;;2.13;;
50355;SDS011;36264;51.296;-0.602;2022-07-03T03:22:26;5.50;;;2.30;;
50355;SDS011;36264;51.296;-0.602;2022-07-03T03:24:53;7.53;;;2.83;;
50355;SDS011;36264;51.296;-0.602;2022-07-03T03:27:18;5.13;;;2.40;;
50355;SDS011;36264;51.296;-0.602;2022-07-03T03:29:44;9.50;;;3.95;;
50355;SDS011;36264;51.296;-0.602;2022-07-03T03:32:10;10.27;;;3.10;;
50355;SDS011;36264;51.296;-0.602;2022-07-03T03:34:36;8.80;;;3.38;;
50355;SDS011;36264;51.296;-0.602;2022-07-03T03:37:04;7.75;;;3.33;;
50355;SDS011;36264;51.296;-0.602;2022-07-03T03:39:30;9.43;;;3.80;;
50355;SDS011;36264;51.296;-0.602;2022-07-03T03:41:55;7.53;;;3.13;;
50355;SDS011;36264;51.296;-0.602;2022-07-03T03:44:21;7.63;;;3.45;;
50355;SDS011;36264;51.296;-0.602;2022-07-03T03:46:46;9.05;;;3.10;;
50355;SDS011;36264;51.296;-0.602;2022-07-03T03:49:12;8.30;;;3.20;;
50355;SDS011;36264;51.296;-0.602;2022-07-03T03:51:37;7.50;;;3.17;;
50355;SDS011;36264;51.296;-0.602;2022-07-03T03:54:03;9.10;;;2.90;;
50355;SDS011;36264;51.296;-0.602;2022-07-03T03:56:29;4.78;;;2.38;;
50355;SDS011;36264;51.296;-0.602;2022-07-03T03:58:55;7.25;;;3.35;;
50355;SDS011;36264;51.296;-0.602;2022-07-03T04:01:20;8.57;;;3.00;;
50355;SDS011;36264;51.296;-0.602;2022-07-03T04:03:45;6.75;;;3.08;;
50355;SDS011;36264;51.296;-0.602;2022-07-03T04:06:11;5.30;;;2.75;;
50355;SDS011;36264;51.296;-0.602;2022-07-03T04:08:36;5.72;;;2.80;;
50355;SDS011;36264;51.296;-0.602;2022-07-03T04:11:01;6.43;;;2.50;;
50355;SDS011;36264;51.296;-0.602;2022-07-03T04:13:27;6.50;;;2.65;;
50355;SDS011;36264;51.296;-0.602;2022-07-03T04:15:53;5.47;;;2.58;;
50355;SDS011;36264;51.296;-0.602;2022-07-03T04:18:19;6.03;;;2.90;;
50355;SDS011;36264;51.296;-0.602;2022-07-03T04:20:44;5.45;;;2.67;;
50355;SDS011;36264;51.296;-0.602;2022-07-03T04:23:10;6.55;;;3.30;;
50355;SDS011;36264;51.296;-0.602;2022-07-03T04:25:35;7.00;;;2.70;;
50355;SDS011;36264;51.296;-0.602;2022-07-03T04:28:00;6.78;;;2.90;;
50355;SDS011;36264;51.296;-0.602;2022-07-03T04:30:26;6.72;;;3.30;;
50355;SDS011;36264;51.296;-0.602;2022-07-03T04:32:51;6.07;;;2.70;;
50355;SDS011;36264;51.296;-0.602;2022-07-03T04:35:17;6.88;;;3.08;;
50355;SDS011;36264;51.296;-0.602;2022-07-03T04:37:43;9.93;;;3.70;;
50355;SDS011;36264;51.296;-0.602;2022-07-03T04:40:08;10.32;;;3.25;;
50355;SDS011;36264;51.296;-0.602;2022-07-03T04:42:34;6.28;;;3.15;;
50355;SDS011;36264;51.296;-0.602;2022-07-03T04:45:00;5.07;;;2.58;;
50355;SDS011;36264;51.296;-0.602;2022-07-03T04:47:26;7.43;;;2.55;;
50355;SDS011;36264;51.296;-0.602;2022-07-03T04:49:51;4.22;;;2.30;;
50355;SDS011;36264;51.296;-0.602;2022-07-03T04:52:16;6.80;;;2.92;;
50355;SDS011;36264;51.296;-0.602;2022-07-03T04:54:42;4.50;;;2.63;;
50355;SDS011;36264;51.296;-0.602;2022-07-03T04:57:08;4.32;;;2.50;;
50355;SDS011;36264;51.296;-0.602;2022-07-03T04:59:33;7.88;;;3.03;;
50355;SDS011;36264;51.296;-0.602;2022-07-03T05:01:58;4.10;;;2.40;;
50355;SDS011;36264;51.296;-0.602;2022-07-03T05:04:24;4.03;;;2.30;;
50355;SDS011;36264;51.296;-0.602;2022-07-03T05:06:49;5.70;;;2.38;;
50355;SDS011;36264;51.296;-0.602;2022-07-03T05:09:14;4.85;;;2.13;;
50355;SDS011;36264;51.296;-0.602;2022-07-03T05:11:40;7.00;;;3.20;;
50355;SDS011;36264;51.296;-0.602;2022-07-03T05:14:06;4.97;;;2.20;;
50355;SDS011;36264;51.296;-0.602;2022-07-03T05:16:32;4.32;;;2.15;;
50355;SDS011;36264;51.296;-0.602;2022-07-03T05:18:57;5.03;;;2.00;;
50355;SDS011;36264;51.296;-0.602;2022-07-03T05:21:23;3.92;;;2.10;;
50355;SDS011;36264;51.296;-0.602;2022-07-03T05:23:49;4.10;;;1.80;;
50355;SDS011;36264;51.296;-0.602;2022-07-03T05:26:14;3.75;;;1.70;;
50355;SDS011;36264;51.296;-0.602;2022-07-03T05:28:40;3.83;;;1.70;;
50355;SDS011;36264;51.296;-0.602;2022-07-03T05:31:06;3.20;;;1.70;;
50355;SDS011;36264;51.296;-0.602;2022-07-03T05:33:32;4.38;;;1.95;;
50355;SDS011;36264;51.296;-0.602;2022-07-03T05:35:58;2.65;;;1.52;;
50355;SDS011;36264;51.296;-0.602;2022-07-03T05:38:24;2.20;;;1.30;;
50355;SDS011;36264;51.296;-0.602;2022-07-03T05:41:08;2.88;;;1.45;;
50355;SDS011;36264;51.296;-0.602;2022-07-03T05:43:34;5.22;;;1.83;;
50355;SDS011;36264;51.296;-0.602;2022-07-03T05:45:59;2.90;;;1.40;;
50355;SDS011;36264;51.296;-0.602;2022-07-03T05:48:24;4.32;;;1.63;;
50355;SDS011;36264;51.296;-0.602;2022-07-03T05:50:50;3.50;;;1.33;;
50355;SDS011;36264;51.296;-0.602;2022-07-03T05:53:15;4.00;;;1.60;;
50355;SDS011;36264;51.296;-0.602;2022-07-03T05:55:41;4.88;;;1.50;;
50355;SDS011;36264;51.296;-0.602;2022-07-03T05:58:06;4.75;;;1.45;;
50355;SDS011;36264;51.296;-0.602;2022-07-03T06:00:33;3.35;;;1.30;;
50355;SDS011;36264;51.296;-0.602;2022-07-03T06:02:58;4.35;;;1.88;;
50355;SDS011;36264;51.296;-0.602;2022-07-03T06:05:23;3.28;;;1.40;;
50355;SDS011;36264;51.296;-0.602;2022-07-03T06:07:49;4.03;;;1.50;;
50355;SDS011;36264;51.296;-0.602;2022-07-03T06:10:15;2.65;;;1.50;;
50355;SDS011;36264;51.296;-0.602;2022-07-03T06:12:40;3.05;;;1.90;;
50355;SDS011;36264;51.296;-0.602;2022-07-03T06:15:06;3.15;;;1.77;;
50355;SDS011;36264;51.296;-0.602;2022-07-03T06:17:33;4.47;;;1.60;;
50355;SDS011;36264;51.296;-0.602;2022-07-03T06:20:00;4.20;;;1.30;;
50355;SDS011;36264;51.296;-0.602;2022-07-03T06:22:25;3.47;;;1.42;;
50355;SDS011;36264;51.296;-0.602;2022-07-03T06:24:50;5.13;;;1.60;;
50355;SDS011;36264;51.296;-0.602;2022-07-03T06:27:16;2.42;;;1.15;;
50355;SDS011;36264;51.296;-0.602;2022-07-03T06:29:41;3.20;;;1.40;;
50355;SDS011;36264;51.296;-0.602;2022-07-03T06:32:07;4.28;;;1.35;;
50355;SDS011;36264;51.296;-0.602;2022-07-03T06:34:32;3.50;;;1.30;;
50355;SDS011;36264;51.296;-0.602;2022-07-03T06:36:57;2.60;;;1.13;;
50355;SDS011;36264;51.296;-0.602;2022-07-03T06:39:23;3.03;;;1.20;;
50355;SDS011;36264;51.296;-0.602;2022-07-03T06:41:48;3.22;;;1.67;;
50355;SDS011;36264;51.296;-0.602;2022-07-03T06:44:13;3.42;;;1.58;;
50355;SDS011;36264;51.296;-0.602;2022-07-03T06:46:39;2.65;;;1.23;;
50355;SDS011;36264;51.296;-0.602;2022-07-03T06:49:04;2.70;;;1.10;;
50355;SDS011;36264;51.296;-0.602;2022-07-03T06:51:29;3.45;;;1.10;;
50355;SDS011;36264;51.296;-0.602;2022-07-03T06:53:55;3.13;;;1.27;;
50355;SDS011;36264;51.296;-0.602;2022-07-03T06:56:20;3.08;;;1.20;;
50355;SDS011;36264;51.296;-0.602;2022-07-03T06:58:45;3.92;;;1.40;;
50355;SDS011;36264;51.296;-0.602;2022-07-03T07:01:11;2.30;;;1.35;;
50355;SDS011;36264;51.296;-0.602;2022-07-03T07:03:36;2.42;;;1.35;;
50355;SDS011;36264;51.296;-0.602;2022-07-03T07:06:01;2.47;;;1.20;;
50355;SDS011;36264;51.296;-0.602;2022-07-03T07:08:27;1.98;;;1.02;;
50355;SDS011;36264;51.296;-0.602;2022-07-03T07:10:52;3.33;;;1.40;;
50355;SDS011;36264;51.296;-0.602;2022-07-03T07:13:17;3.78;;;1.13;;
50355;SDS011;36264;51.296;-0.602;2022-07-03T07:15:43;2.70;;;1.20;;
50355;SDS011;36264;51.296;-0.602;2022-07-03T07:18:08;2.15;;;1.10;;
50355;SDS011;36264;51.296;-0.602;2022-07-03T07:20:34;2.08;;;1.25;;
50355;SDS011;36264;51.296;-0.602;2022-07-03T07:22:59;1.30;;;1.00;;
50355;SDS011;36264;51.296;-0.602;2022-07-03T07:25:24;6.13;;;1.40;;
50355;SDS011;36264;51.296;-0.602;2022-07-03T07:27:50;3.20;;;1.20;;
50355;SDS011;36264;51.296;-0.602;2022-07-03T07:30:15;3.85;;;1.33;;
50355;SDS011;36264;51.296;-0.602;2022-07-03T07:32:40;2.30;;;1.20;;
50355;SDS011;36264;51.296;-0.602;2022-07-03T07:35:06;2.97;;;1.10;;
50355;SDS011;36264;51.296;-0.602;2022-07-03T07:37:32;3.03;;;1.35;;
50355;SDS011;36264;51.296;-0.602;2022-07-03T07:39:57;2.10;;;1.10;;
50355;SDS011;36264;51.296;-0.602;2022-07-03T07:42:23;2.25;;;1.27;;
50355;SDS011;36264;51.296;-0.602;2022-07-03T07:44:49;3.97;;;1.27;;
50355;SDS011;36264;51.296;-0.602;2022-07-03T07:47:14;4.50;;;1.60;;
50355;SDS011;36264;51.296;-0.602;2022-07-03T07:49:40;3.45;;;1.60;;
50355;SDS011;36264;51.296;-0.602;2022-07-03T07:52:05;3.78;;;1.48;;
50355;SDS011;36264;51.296;-0.602;2022-07-03T07:54:31;3.10;;;1.30;;
50355;SDS011;36264;51.296;-0.602;2022-07-03T07:56:57;2.83;;;1.33;;
50355;SDS011;36264;51.296;-0.602;2022-07-03T07:59:22;3.85;;;1.20;;
50355;SDS011;36264;51.296;-0.602;2022-07-03T08:01:47;3.80;;;1.40;;
50355;SDS011;36264;51.296;-0.602;2022-07-03T08:04:31;2.97;;;1.30;;
50355;SDS011;36264;51.296;-0.602;2022-07-03T08:07:15;4.28;;;1.50;;
50355;SDS011;36264;51.296;-0.602;2022-07-03T08:09:40;3.05;;;1.20;;
50355;SDS011;36264;51.296;-0.602;2022-07-03T08:12:06;5.57;;;1.40;;
50355;SDS011;36264;51.296;-0.602;2022-07-03T08:14:32;2.78;;;1.30;;
50355;SDS011;36264;51.296;-0.602;2022-07-03T08:16:57;2.53;;;1.20;;
50355;SDS011;36264;51.296;-0.602;2022-07-03T08:19:22;2.53;;;1.38;;
50355;SDS011;36264;51.296;-0.602;2022-07-03T08:21:48;3.92;;;1.50;;
50355;SDS011;36264;51.296;-0.602;2022-07-03T08:24:13;2.05;;;1.10;;
50355;SDS011;36264;51.296;-0.602;2022-07-03T08:26:38;3.40;;;1.30;;
50355;SDS011;36264;51.296;-0.602;2022-07-03T08:29:04;1.23;;;1.08;;
50355;SDS011;36264;51.296;-0.602;2022-07-03T08:31:29;7.28;;;1.50;;
50355;SDS011;36264;51.296;-0.602;2022-07-03T08:33:54;1.70;;;1.20;;
50355;SDS011;36264;51.296;-0.602;2022-07-03T08:36:20;2.63;;;1.40;;
50355;SDS011;36264;51.296;-0.602;2022-07-03T08:38:45;2.63;;;1.33;;
50355;SDS011;36264;51.296;-0.602;2022-07-03T08:41:11;3.70;;;1.55;;
50355;SDS011;36264;51.296;-0.602;2022-07-03T08:43:38;2.28;;;1.25;;
50355;SDS011;36264;51.296;-0.602;2022-07-03T08:46:05;2.70;;;1.27;;
50355;SDS011;36264;51.296;-0.602;2022-07-03T08:48:32;2.10;;;1.20;;
50355;SDS011;36264;51.296;-0.602;2022-07-03T08:51:00;2.38;;;1.27;;
50355;SDS011;36264;51.296;-0.602;2022-07-03T08:53:26;1.90;;;1.13;;
50355;SDS011;36264;51.296;-0.602;2022-07-03T08:55:52;3.15;;;1.35;;
50355;SDS011;36264;51.296;-0.602;2022-07-03T08:58:17;4.10;;;1.40;;
50355;SDS011;36264;51.296;-0.602;2022-07-03T09:00:46;2.13;;;1.40;;
50355;SDS011;36264;51.296;-0.602;2022-07-03T09:03:12;5.45;;;1.60;;
50355;SDS011;36264;51.296;-0.602;2022-07-03T09:05:40;2.53;;;1.40;;
50355;SDS011;36264;51.296;-0.602;2022-07-03T09:08:06;5.15;;;1.55;;
50355;SDS011;36264;51.296;-0.602;2022-07-03T09:10:33;3.58;;;1.55;;
50355;SDS011;36264;51.296;-0.602;2022-07-03T09:12:59;3.25;;;1.55;;
50355;SDS011;36264;51.296;-0.602;2022-07-03T09:15:24;3.33;;;1.40;;
50355;SDS011;36264;51.296;-0.602;2022-07-03T09:18:50;2.50;;;1.30;;
50355;SDS011;36264;51.296;-0.602;2022-07-03T09:21:03;3.40;;;1.42;;
50355;SDS011;36264;51.296;-0.602;2022-07-03T09:23:34;3.25;;;1.45;;
50355;SDS011;36264;51.296;-0.602;2022-07-03T09:26:01;1.60;;;1.15;;
50355;SDS011;36264;51.296;-0.602;2022-07-03T09:28:40;2.33;;;1.30;;
50355;SDS011;36264;51.296;-0.602;2022-07-03T09:31:16;1.90;;;1.23;;
50355;SDS011;36264;51.296;-0.602;2022-07-03T09:39:25;2.65;;;1.20;;
50355;SDS011;36264;51.296;-0.602;2022-07-03T09:44:33;3.78;;;1.50;;
50355;SDS011;36264;51.296;-0.602;2022-07-03T09:47:08;2.15;;;1.23;;
50355;SDS011;36264;51.296;-0.602;2022-07-03T09:52:31;2.60;;;1.33;;
50355;SDS011;36264;51.296;-0.602;2022-07-03T09:57:37;3.55;;;1.23;;
50355;SDS011;36264;51.296;-0.602;2022-07-03T10:00:08;1.58;;;1.20;;
50355;SDS011;36264;51.296;-0.602;2022-07-03T10:05:32;2.00;;;1.27;;
50355;SDS011;36264;51.296;-0.602;2022-07-03T10:08:11;1.52;;;1.20;;
50355;SDS011;36264;51.296;-0.602;2022-07-03T10:10:39;1.30;;;1.13;;
50355;SDS011;36264;51.296;-0.602;2022-07-03T10:13:06;3.38;;;1.60;;
50355;SDS011;36264;51.296;-0.602;2022-07-03T10:15:32;2.78;;;1.38;;
50355;SDS011;36264;51.296;-0.602;2022-07-03T10:18:01;4.07;;;1.47;;
50355;SDS011;36264;51.296;-0.602;2022-07-03T10:20:38;2.00;;;1.30;;
50355;SDS011;36264;51.296;-0.602;2022-07-03T10:23:05;3.22;;;1.70;;
50355;SDS011;36264;51.296;-0.602;2022-07-03T10:25:31;4.18;;;1.58;;
50355;SDS011;36264;51.296;-0.602;2022-07-03T10:27:57;3.55;;;1.60;;
50355;SDS011;36264;51.296;-0.602;2022-07-03T10:30:23;3.03;;;1.30;;
50355;SDS011;36264;51.296;-0.602;2022-07-03T10:32:50;3.40;;;1.35;;
50355;SDS011;36264;51.296;-0.602;2022-07-03T10:35:24;3.08;;;1.55;;
50355;SDS011;36264;51.296;-0.602;2022-07-03T10:40:30;3.13;;;1.30;;
50355;SDS011;36264;51.296;-0.602;2022-07-03T10:43:28;2.20;;;1.10;;
50355;SDS011;36264;51.296;-0.602;2022-07-03T10:46:15;2.10;;;1.40;;
50355;SDS011;36264;51.296;-0.602;2022-07-03T10:51:31;2.90;;;1.20;;
50355;SDS011;36264;51.296;-0.602;2022-07-03T10:54:35;2.50;;;1.30;;
50355;SDS011;36264;51.296;-0.602;2022-07-03T10:57:15;1.98;;;1.20;;
50355;SDS011;36264;51.296;-0.602;2022-07-03T11:07:25;3.50;;;1.27;;
50355;SDS011;36264;51.296;-0.602;2022-07-03T11:15:34;2.25;;;1.20;;
50355;SDS011;36264;51.296;-0.602;2022-07-03T11:26:28;3.63;;;1.60;;
50355;SDS011;36264;51.296;-0.602;2022-07-03T11:28:48;2.15;;;1.27;;
50355;SDS011;36264;51.296;-0.602;2022-07-03T11:31:18;1.85;;;1.13;;
50355;SDS011;36264;51.296;-0.602;2022-07-03T11:36:30;3.47;;;1.45;;
50355;SDS011;36264;51.296;-0.602;2022-07-03T11:41:23;1.15;;;1.05;;
50355;SDS011;36264;51.296;-0.602;2022-07-03T11:43:51;1.13;;;1.00;;
50355;SDS011;36264;51.296;-0.602;2022-07-03T11:46:19;1.88;;;1.10;;
50355;SDS011;36264;51.296;-0.602;2022-07-03T11:48:46;1.70;;;1.10;;
50355;SDS011;36264;51.296;-0.602;2022-07-03T11:51:12;2.20;;;1.13;;
50355;SDS011;36264;51.296;-0.602;2022-07-03T11:53:38;3.38;;;1.30;;
50355;SDS011;36264;51.296;-0.602;2022-07-03T11:56:08;2.75;;;1.35;;
50355;SDS011;36264;51.296;-0.602;2022-07-03T12:01:10;3.58;;;1.48;;
50355;SDS011;36264;51.296;-0.602;2022-07-03T12:06:46;1.40;;;1.20;;
50355;SDS011;36264;51.296;-0.602;2022-07-03T12:09:28;2.05;;;1.30;;
50355;SDS011;36264;51.296;-0.602;2022-07-03T12:12:08;3.63;;;1.15;;
50355;SDS011;36264;51.296;-0.602;2022-07-03T12:14:36;2.13;;;1.30;;
50355;SDS011;36264;51.296;-0.602;2022-07-03T12:17:13;2.05;;;1.10;;
50355;SDS011;36264;51.296;-0.602;2022-07-03T12:19:50;1.40;;;1.10;;
50355;SDS011;36264;51.296;-0.602;2022-07-03T12:22:32;2.57;;;1.27;;
50355;SDS011;36264;51.296;-0.602;2022-07-03T12:24:58;2.40;;;1.40;;
50355;SDS011;36264;51.296;-0.602;2022-07-03T12:27:30;2.58;;;1.33;;
50355;SDS011;36264;51.296;-0.602;2022-07-03T12:29:57;2.72;;;1.40;;
50355;SDS011;36264;51.296;-0.602;2022-07-03T12:32:23;2.03;;;1.23;;
50355;SDS011;36264;51.296;-0.602;2022-07-03T12:34:49;1.55;;;1.20;;
50355;SDS011;36264;51.296;-0.602;2022-07-03T12:37:14;1.10;;;1.00;;
50355;SDS011;36264;51.296;-0.602;2022-07-03T12:39:43;1.20;;;1.10;;
50355;SDS011;36264;51.296;-0.602;2022-07-03T12:42:18;1.20;;;1.10;;
50355;SDS011;36264;51.296;-0.602;2022-07-03T12:44:57;1.40;;;1.10;;
50355;SDS011;36264;51.296;-0.602;2022-07-03T12:47:25;1.35;;;1.10;;
50355;SDS011;36264;51.296;-0.602;2022-07-03T12:49:58;1.45;;;1.20;;
50355;SDS011;36264;51.296;-0.602;2022-07-03T12:52:26;1.52;;;1.30;;
50355;SDS011;36264;51.296;-0.602;2022-07-03T12:54:53;2.20;;;1.20;;
50355;SDS011;36264;51.296;-0.602;2022-07-03T12:57:18;1.27;;;1.10;;
50355;SDS011;36264;51.296;-0.602;2022-07-03T13:00:06;2.95;;;1.38;;
50355;SDS011;36264;51.296;-0.602;2022-07-03T13:02:36;1.88;;;1.20;;
50355;SDS011;36264;51.296;-0.602;2022-07-03T13:05:13;1.20;;;1.10;;
50355;SDS011;36264;51.296;-0.602;2022-07-03T13:07:41;1.75;;;1.20;;
50355;SDS011;36264;51.296;-0.602;2022-07-03T13:10:07;2.03;;;1.20;;
50355;SDS011;36264;51.296;-0.602;2022-07-03T13:12:33;2.10;;;1.27;;
50355;SDS011;36264;51.296;-0.602;2022-07-03T13:14:59;2.10;;;1.20;;
50355;SDS011;36264;51.296;-0.602;2022-07-03T13:20:18;2.05;;;1.20;;
50355;SDS011;36264;51.296;-0.602;2022-07-03T13:22:43;2.15;;;1.20;;
50355;SDS011;36264;51.296;-0.602;2022-07-03T13:25:08;2.38;;;1.30;;
50355;SDS011;36264;51.296;-0.602;2022-07-03T13:27:34;3.22;;;1.60;;
50355;SDS011;36264;51.296;-0.602;2022-07-03T13:29:59;2.13;;;1.30;;
50355;SDS011;36264;51.296;-0.602;2022-07-03T13:32:24;1.45;;;1.20;;
50355;SDS011;36264;51.296;-0.602;2022-07-03T13:34:50;1.88;;;1.20;;
50355;SDS011;36264;51.296;-0.602;2022-07-03T13:37:15;1.88;;;1.25;;
50355;SDS011;36264;51.296;-0.602;2022-07-03T13:39:40;2.05;;;1.30;;
50355;SDS011;36264;51.296;-0.602;2022-07-03T13:42:06;2.17;;;1.33;;
50355;SDS011;36264;51.296;-0.602;2022-07-03T13:44:35;2.77;;;1.43;;
50355;SDS011;36264;51.296;-0.602;2022-07-03T13:47:01;2.50;;;1.40;;
50355;SDS011;36264;51.296;-0.602;2022-07-03T13:49:26;1.80;;;1.48;;
50355;SDS011;36264;51.296;-0.602;2022-07-03T13:51:51;2.60;;;1.60;;
50355;SDS011;36264;51.296;-0.602;2022-07-03T13:54:17;1.48;;;1.33;;
50355;SDS011;36264;51.296;-0.602;2022-07-03T13:56:42;3.15;;;1.50;;
50355;SDS011;36264;51.296;-0.602;2022-07-03T13:59:08;1.80;;;1.30;;
50355;SDS011;36264;51.296;-0.602;2022-07-03T14:01:33;3.20;;;1.50;;
50355;SDS011;36264;51.296;-0.602;2022-07-03T14:03:58;3.28;;;1.80;;
50355;SDS011;36264;51.296;-0.602;2022-07-03T14:06:24;2.70;;;1.60;;
50355;SDS011;36264;51.296;-0.602;2022-07-03T14:08:49;3.25;;;1.90;;
50355;SDS011;36264;51.296;-0.602;2022-07-03T14:11:15;3.25;;;1.63;;
50355;SDS011;36264;51.296;-0.602;2022-07-03T14:13:40;2.78;;;1.50;;
50355;SDS011;36264;51.296;-0.602;2022-07-03T14:16:06;2.08;;;1.40;;
50355;SDS011;36264;51.296;-0.602;2022-07-03T14:18:31;1.92;;;1.25;;
50355;SDS011;36264;51.296;-0.602;2022-07-03T14:20:56;2.58;;;1.52;;
50355;SDS011;36264;51.296;-0.602;2022-07-03T14:23:22;2.28;;;1.48;;
50355;SDS011;36264;51.296;-0.602;2022-07-03T14:25:47;1.80;;;1.30;;
50355;SDS011;36264;51.296;-0.602;2022-07-03T14:28:13;1.63;;;1.30;;
50355;SDS011;36264;51.296;-0.602;2022-07-03T14:30:56;1.20;;;1.10;;
50355;SDS011;36264;51.296;-0.602;2022-07-03T14:33:40;1.85;;;1.30;;
50355;SDS011;36264;51.296;-0.602;2022-07-03T14:36:06;1.20;;;1.10;;
50355;SDS011;36264;51.296;-0.602;2022-07-03T14:38:31;1.58;;;1.17;;
50355;SDS011;36264;51.296;-0.602;2022-07-03T14:40:56;2.47;;;1.60;;
50355;SDS011;36264;51.296;-0.602;2022-07-03T14:43:22;1.38;;;1.20;;
50355;SDS011;36264;51.296;-0.602;2022-07-03T14:45:47;1.30;;;1.20;;
50355;SDS011;36264;51.296;-0.602;2022-07-03T14:48:12;2.17;;;1.40;;
50355;SDS011;36264;51.296;-0.602;2022-07-03T14:50:38;2.15;;;1.50;;
50355;SDS011;36264;51.296;-0.602;2022-07-03T14:53:04;2.85;;;1.60;;
50355;SDS011;36264;51.296;-0.602;2022-07-03T14:55:32;4.07;;;1.50;;
50355;SDS011;36264;51.296;-0.602;2022-07-03T15:00:48;2.53;;;1.48;;
50355;SDS011;36264;51.296;-0.602;2022-07-03T15:03:15;1.48;;;1.27;;
50355;SDS011;36264;51.296;-0.602;2022-07-03T15:05:51;2.55;;;1.45;;
50355;SDS011;36264;51.296;-0.602;2022-07-03T15:10:47;4.03;;;1.42;;
50355;SDS011;36264;51.296;-0.602;2022-07-03T15:13:13;2.22;;;1.40;;
50355;SDS011;36264;51.296;-0.602;2022-07-03T15:15:40;2.88;;;1.50;;
50355;SDS011;36264;51.296;-0.602;2022-07-03T15:18:07;1.42;;;1.25;;
50355;SDS011;36264;51.296;-0.602;2022-07-03T15:20:34;2.05;;;1.33;;
50355;SDS011;36264;51.296;-0.602;2022-07-03T15:23:01;1.95;;;1.30;;
50355;SDS011;36264;51.296;-0.602;2022-07-03T15:25:30;2.00;;;1.20;;
50355;SDS011;36264;51.296;-0.602;2022-07-03T15:27:56;1.67;;;1.20;;
50355;SDS011;36264;51.296;-0.602;2022-07-03T15:30:22;2.35;;;1.40;;
50355;SDS011;36264;51.296;-0.602;2022-07-03T15:32:49;1.52;;;1.25;;
50355;SDS011;36264;51.296;-0.602;2022-07-03T15:35:17;1.80;;;1.15;;
50355;SDS011;36264;51.296;-0.602;2022-07-03T15:37:55;1.58;;;1.10;;
50355;SDS011;36264;51.296;-0.602;2022-07-03T15:40:46;2.30;;;1.20;;
50355;SDS011;36264;51.296;-0.602;2022-07-03T15:43:23;1.77;;;1.30;;
50355;SDS011;36264;51.296;-0.602;2022-07-03T15:45:52;4.07;;;1.30;;
50355;SDS011;36264;51.296;-0.602;2022-07-03T15:51:22;4.10;;;1.30;;
50355;SDS011;36264;51.296;-0.602;2022-07-03T15:53:58;1.65;;;1.27;;
50355;SDS011;36264;51.296;-0.602;2022-07-03T15:56:29;1.58;;;1.15;;
50355;SDS011;36264;51.296;-0.602;2022-07-03T15:59:00;2.88;;;1.17;;
50355;SDS011;36264;51.296;-0.602;2022-07-03T16:01:28;1.45;;;1.10;;
50355;SDS011;36264;51.296;-0.602;2022-07-03T16:04:25;1.85;;;1.30;;
50355;SDS011;36264;51.296;-0.602;2022-07-03T16:06:53;2.97;;;1.40;;
50355;SDS011;36264;51.296;-0.602;2022-07-03T16:09:19;1.80;;;1.52;;
50355;SDS011;36264;51.296;-0.602;2022-07-03T16:11:44;2.00;;;1.40;;
50355;SDS011;36264;51.296;-0.602;2022-07-03T16:14:11;1.42;;;1.20;;